createdAt,value
2023-01-13T00:01:33.860Z,1.18
2023-01-13T00:04:00.384Z,1.17
2023-01-13T00:06:26.755Z,1.19
2023-01-13T00:08:53.144Z,1.29
2023-01-13T00:11:19.518Z,1.23
2023-01-13T00:13:46.079Z,1.07
2023-01-13T00:16:12.514Z,1.15
2023-01-13T00:18:42.733Z,1.12
2023-01-13T00:21:09.105Z,1.21
2023-01-13T00:23:35.806Z,1.15
2023-01-13T00:26:02.380Z,1.36
2023-01-13T00:28:28.790Z,1.43
2023-01-13T00:30:55.255Z,1.30
2023-01-13T00:33:21.911Z,1.41
2023-01-13T00:35:48.429Z,1.35
2023-01-13T00:38:16.887Z,1.43
2023-01-13T00:40:43.279Z,1.39
2023-01-13T00:43:09.654Z,1.46
2023-01-13T00:45:36.039Z,1.44
2023-01-13T00:48:02.521Z,1.43
2023-01-13T00:50:29.861Z,1.38
2023-01-13T00:52:56.223Z,1.30
2023-01-13T00:55:22.637Z,1.29
2023-01-13T00:57:49.484Z,1.28
2023-01-13T01:00:16.357Z,1.19
2023-01-13T01:02:44.014Z,1.32
2023-01-13T01:05:10.463Z,1.18
2023-01-13T01:07:36.868Z,1.09
2023-01-13T01:10:03.542Z,1.26
2023-01-13T01:12:30.084Z,1.13
2023-01-13T01:14:56.457Z,1.10
2023-01-13T01:17:22.823Z,1.04
2023-01-13T01:19:49.182Z,0.96
2023-01-13T01:22:15.550Z,1.14
2023-01-13T01:24:41.976Z,1.05
2023-01-13T01:27:08.331Z,1.01
2023-01-13T01:29:35.103Z,1.15
2023-01-13T01:32:02.532Z,1.02
2023-01-13T01:34:29.111Z,1.21
2023-01-13T01:36:56.787Z,1.23
2023-01-13T01:39:23.167Z,1.31
2023-01-13T01:41:49.551Z,1.15
2023-01-13T01:44:16.255Z,1.10
2023-01-13T01:46:42.750Z,1.17
2023-01-13T01:49:09.182Z,1.11
2023-01-13T01:51:35.726Z,1.21
2023-01-13T01:54:04.411Z,1.05
2023-01-13T01:56:30.793Z,0.99
2023-01-13T01:58:57.359Z,1.16
2023-01-13T02:01:23.846Z,1.06
2023-01-13T02:03:50.285Z,1.13
2023-01-13T02:06:16.673Z,1.13
2023-01-13T02:08:43.037Z,1.03
2023-01-13T02:11:09.429Z,1.00
2023-01-13T02:13:35.811Z,1.02
2023-01-13T02:16:02.245Z,0.99
2023-01-13T02:18:31.242Z,1.15
2023-01-13T02:20:59.148Z,1.05
2023-01-13T02:23:25.524Z,0.89
2023-01-13T02:25:51.880Z,1.11
2023-01-13T02:28:18.453Z,0.97
2023-01-13T02:30:44.964Z,0.93
2023-01-13T02:33:13.648Z,1.01
2023-01-13T02:35:41.783Z,1.04
2023-01-13T02:38:08.152Z,1.18
2023-01-13T02:40:34.530Z,1.08
2023-01-13T02:43:00.879Z,0.99
2023-01-13T02:45:27.276Z,1.19
2023-01-13T02:47:53.874Z,0.97
2023-01-13T02:50:20.245Z,1.08
2023-01-13T02:52:46.607Z,0.95
2023-01-13T02:55:15.040Z,0.94
2023-01-13T02:57:41.405Z,0.98
2023-01-13T03:00:07.733Z,1.09
2023-01-13T03:02:34.120Z,0.94
2023-01-13T03:05:02.613Z,1.04
2023-01-13T03:07:28.997Z,0.90
2023-01-13T03:09:55.380Z,1.06
2023-01-13T03:12:21.762Z,0.88
2023-01-13T03:14:48.117Z,1.03
2023-01-13T03:17:14.438Z,1.10
2023-01-13T03:19:40.778Z,1.16
2023-01-13T03:22:08.113Z,1.23
2023-01-13T03:24:34.662Z,1.24
2023-01-13T03:27:01.050Z,1.21
2023-01-13T03:29:27.384Z,1.27
2023-01-13T03:31:53.725Z,1.29
2023-01-13T03:34:20.099Z,1.32
2023-01-13T03:36:46.476Z,1.22
2023-01-13T03:39:12.871Z,1.21
2023-01-13T03:41:39.221Z,1.33
2023-01-13T03:44:05.600Z,1.11
2023-01-13T03:46:32.991Z,1.26
2023-01-13T03:48:59.346Z,1.28
2023-01-13T03:51:28.741Z,1.34
2023-01-13T03:53:55.334Z,1.36
2023-01-13T03:56:21.727Z,1.32
2023-01-13T03:58:48.123Z,1.42
2023-01-13T04:01:14.791Z,1.27
2023-01-13T04:03:41.490Z,1.35
2023-01-13T04:06:07.844Z,1.23
2023-01-13T04:08:36.553Z,1.42
2023-01-13T04:11:02.931Z,1.30
2023-01-13T04:13:29.342Z,1.27
2023-01-13T04:15:56.764Z,1.51
2023-01-13T04:18:23.127Z,1.29
2023-01-13T04:20:49.508Z,1.28
2023-01-13T04:23:15.900Z,1.36
2023-01-13T04:25:49.460Z,1.29
2023-01-13T04:28:15.790Z,1.43
2023-01-13T04:30:42.209Z,1.41
2023-01-13T04:33:08.616Z,1.48
2023-01-13T04:35:35.055Z,1.42
2023-01-13T04:38:01.462Z,1.57
2023-01-13T04:40:27.924Z,1.43
2023-01-13T04:42:54.313Z,1.71
2023-01-13T04:45:20.694Z,1.59
2023-01-13T04:47:47.066Z,1.53
2023-01-13T04:50:13.435Z,1.61
2023-01-13T04:52:39.769Z,1.59
2023-01-13T04:55:06.128Z,1.84
2023-01-13T04:57:32.516Z,1.56
2023-01-13T04:59:58.864Z,1.58
2023-01-13T05:02:27.328Z,1.59
2023-01-13T05:04:54.043Z,1.47
2023-01-13T05:07:20.471Z,1.43
2023-01-13T05:09:46.798Z,1.54
2023-01-13T05:12:14.241Z,1.38
2023-01-13T05:14:40.565Z,1.46
2023-01-13T05:17:07.005Z,1.42
2023-01-13T05:19:33.350Z,1.35
2023-01-13T05:21:59.738Z,1.56
2023-01-13T05:24:26.124Z,1.30
2023-01-13T05:26:52.483Z,1.36
2023-01-13T05:29:18.979Z,1.40
2023-01-13T05:31:45.375Z,1.48
2023-01-13T05:34:11.952Z,1.71
2023-01-13T05:36:38.289Z,1.51
2023-01-13T05:39:04.647Z,1.54
2023-01-13T05:41:31.133Z,1.47
2023-01-13T05:44:05.311Z,1.50
2023-01-13T05:46:31.923Z,1.45
2023-01-13T05:48:58.325Z,1.40
2023-01-13T05:51:24.689Z,1.24
2023-01-13T05:53:51.401Z,1.33
2023-01-13T05:56:17.740Z,1.29
2023-01-13T05:58:44.068Z,1.36
2023-01-13T06:01:10.507Z,1.36
2023-01-13T06:03:37.500Z,1.38
2023-01-13T06:06:04.045Z,1.29
2023-01-13T06:08:33.830Z,1.38
2023-01-13T06:11:00.225Z,1.23
2023-01-13T06:13:26.609Z,1.31
2023-01-13T06:15:55.386Z,1.27
2023-01-13T06:18:21.782Z,1.15
2023-01-13T06:20:50.521Z,1.21
2023-01-13T06:23:16.891Z,1.38
2023-01-13T06:25:43.262Z,1.20
2023-01-13T06:28:09.637Z,1.22
2023-01-13T06:30:36.346Z,1.37
2023-01-13T06:33:02.686Z,1.42
2023-01-13T06:35:29.074Z,1.52
2023-01-13T06:37:55.760Z,1.42
2023-01-13T06:40:22.490Z,1.43
2023-01-13T06:42:48.862Z,1.34
2023-01-13T06:45:15.236Z,1.37
2023-01-13T06:47:41.627Z,1.18
2023-01-13T06:50:08.004Z,1.35
2023-01-13T06:52:34.345Z,1.49
2023-01-13T06:55:00.997Z,1.56
2023-01-13T06:57:27.399Z,1.47
2023-01-13T06:59:53.880Z,1.53
2023-01-13T07:02:21.245Z,1.75
2023-01-13T07:04:48.004Z,1.81
2023-01-13T07:07:14.742Z,1.69
2023-01-13T07:09:42.127Z,1.97
2023-01-13T07:12:08.627Z,2.00
2023-01-13T07:14:34.980Z,1.95
2023-01-13T07:17:01.472Z,2.06
2023-01-13T07:19:27.962Z,1.88
2023-01-13T07:21:54.367Z,2.05
2023-01-13T07:24:20.786Z,2.08
2023-01-13T07:26:47.151Z,1.90
2023-01-13T07:29:13.911Z,1.85
2023-01-13T07:31:40.301Z,2.01
2023-01-13T07:34:06.668Z,2.03
2023-01-13T07:36:33.032Z,1.88
2023-01-13T07:39:00.457Z,1.89
2023-01-13T07:41:26.827Z,1.83
2023-01-13T07:43:53.220Z,1.86
2023-01-13T07:46:19.627Z,1.75
2023-01-13T07:48:45.996Z,1.68
2023-01-13T07:51:12.816Z,1.63
2023-01-13T07:53:39.366Z,1.78
2023-01-13T07:56:05.742Z,1.68
2023-01-13T07:58:32.123Z,1.98
2023-01-13T08:01:06.291Z,1.72
2023-01-13T08:03:32.673Z,1.84
2023-01-13T08:06:01.152Z,1.73
2023-01-13T08:08:27.491Z,1.76
2023-01-13T08:10:53.982Z,1.68
2023-01-13T08:13:20.429Z,1.67
2023-01-13T08:15:47.301Z,1.60
2023-01-13T08:18:15.791Z,1.65
2023-01-13T08:20:43.146Z,1.51
2023-01-13T08:23:09.492Z,1.42
2023-01-13T08:25:35.858Z,1.69
2023-01-13T08:28:05.021Z,1.54
2023-01-13T08:30:32.450Z,1.35
2023-01-13T08:32:59.913Z,1.36
2023-01-13T08:35:26.283Z,1.24
2023-01-13T08:37:55.756Z,1.37
2023-01-13T08:40:24.909Z,1.30
2023-01-13T08:42:56.199Z,1.28
2023-01-13T08:45:22.583Z,1.23
2023-01-13T08:47:48.928Z,1.22
2023-01-13T10:08:26.198Z,0.50
2023-01-13T10:11:31.601Z,0.52
2023-01-13T10:13:48.601Z,0.56
2023-01-13T10:24:27.797Z,0.46
2023-01-13T10:27:01.653Z,0.43
2023-01-13T10:29:28.035Z,0.40
2023-01-13T10:31:55.413Z,0.40
2023-01-13T10:34:21.797Z,0.69
2023-01-13T10:36:48.532Z,0.58
2023-01-13T10:39:14.936Z,0.49
2023-01-13T10:41:41.511Z,0.43
2023-01-13T10:44:10.403Z,0.40
2023-01-13T10:46:38.805Z,0.48
2023-01-13T10:49:05.421Z,0.36
2023-01-13T10:51:34.166Z,0.37
2023-01-13T10:54:00.545Z,0.35
2023-01-13T10:56:26.933Z,0.43
2023-01-13T10:58:53.621Z,0.43
2023-01-13T11:01:21.122Z,0.58
2023-01-13T11:03:47.529Z,0.41
2023-01-13T11:06:14.018Z,0.44
2023-01-13T11:08:40.706Z,0.36
2023-01-13T11:11:07.041Z,0.45
2023-01-13T11:13:37.888Z,0.45
2023-01-13T11:16:04.373Z,0.49
2023-01-13T11:18:30.808Z,0.39
2023-01-13T11:20:58.210Z,0.41
2023-01-13T11:23:24.845Z,0.34
2023-01-13T11:25:52.187Z,0.41
2023-01-13T11:28:19.581Z,0.48
2023-01-13T11:30:46.098Z,0.36
2023-01-13T11:33:12.452Z,0.43
2023-01-13T11:35:38.843Z,0.44
2023-01-13T11:38:06.674Z,0.34
2023-01-13T11:40:33.030Z,0.37
2023-01-13T11:42:59.969Z,0.34
2023-01-13T11:48:09.089Z,0.36
2023-01-13T11:50:35.535Z,0.52
2023-01-13T11:53:04.896Z,0.52
2023-01-13T11:55:31.249Z,0.40
2023-01-13T11:58:00.163Z,0.49
2023-01-13T12:00:26.559Z,0.56
2023-01-13T12:02:52.940Z,0.38
2023-01-13T12:05:21.809Z,0.32
2023-01-13T12:07:48.212Z,0.35
2023-01-13T12:10:18.044Z,0.38
2023-01-13T12:12:44.443Z,0.63
2023-01-13T12:15:13.172Z,0.69
2023-01-13T12:17:40.063Z,0.42
2023-01-13T12:20:06.820Z,0.36
2023-01-13T12:22:35.924Z,0.36
2023-01-13T12:25:03.144Z,0.53
2023-01-13T12:27:29.757Z,0.34
2023-01-13T12:29:56.529Z,0.36
2023-01-13T12:32:22.945Z,0.36
2023-01-13T12:34:50.980Z,0.41
2023-01-13T12:37:17.912Z,0.40
2023-01-13T12:39:45.921Z,0.32
2023-01-13T12:42:15.092Z,0.39
2023-01-13T12:44:41.438Z,0.40
2023-01-13T12:47:07.806Z,0.42
2023-01-13T12:49:35.108Z,0.40
2023-01-13T12:52:01.492Z,0.44
2023-01-13T12:54:27.869Z,0.41
2023-01-13T12:56:54.506Z,0.43
2023-01-13T12:59:21.873Z,0.40
2023-01-13T13:01:49.365Z,0.42
2023-01-13T13:04:15.851Z,0.45
2023-01-13T13:06:45.262Z,0.48
2023-01-13T13:09:12.407Z,0.51
2023-01-13T13:11:39.854Z,0.43
2023-01-13T13:14:06.753Z,0.51
2023-01-13T13:16:33.652Z,0.42
2023-01-13T13:19:02.916Z,0.42
2023-01-13T13:21:32.354Z,0.45
2023-01-13T13:24:00.835Z,0.50
2023-01-13T13:26:28.191Z,0.47
2023-01-13T13:28:54.575Z,0.51
2023-01-13T13:31:21.002Z,0.39
2023-01-13T13:33:49.935Z,0.45
2023-01-13T13:36:17.575Z,0.42
2023-01-13T13:38:43.934Z,0.39
2023-01-13T13:41:10.434Z,0.48
2023-01-13T13:43:37.820Z,0.39
2023-01-13T13:46:06.582Z,0.41
2023-01-13T13:48:33.025Z,0.59
2023-01-13T13:50:59.425Z,0.40
2023-01-13T13:53:27.896Z,0.44
2023-01-13T13:55:54.274Z,0.49
2023-01-13T13:58:20.624Z,0.34
2023-01-13T14:00:47.000Z,0.38
2023-01-13T14:03:13.594Z,0.44
2023-01-13T14:05:39.940Z,0.45
2023-01-13T14:08:07.508Z,0.53
2023-01-13T14:10:33.894Z,0.37
2023-01-13T14:13:00.932Z,0.44
2023-01-13T14:15:27.337Z,0.34
2023-01-13T14:17:53.743Z,0.36
2023-01-13T14:20:22.390Z,0.46
2023-01-13T14:22:51.904Z,0.37
2023-01-13T14:25:18.298Z,0.47
2023-01-13T14:27:44.892Z,0.40
2023-01-13T14:30:13.328Z,0.36
2023-01-13T14:32:39.672Z,0.48
2023-01-13T14:35:06.183Z,0.39
2023-01-13T14:37:32.536Z,0.49
2023-01-13T14:40:01.284Z,0.57
2023-01-13T14:42:28.845Z,0.53
2023-01-13T14:44:56.315Z,0.58
2023-01-13T14:47:22.987Z,0.49
2023-01-13T14:49:49.322Z,0.50
2023-01-13T14:52:15.738Z,0.49
2023-01-13T14:54:42.227Z,0.67
2023-01-13T14:57:09.017Z,0.55
2023-01-13T14:59:35.387Z,0.46
2023-01-13T15:02:01.776Z,0.55
2023-01-13T15:04:28.171Z,0.51
2023-01-13T15:06:54.948Z,0.46
2023-01-13T15:09:21.362Z,0.48
2023-01-13T15:11:50.284Z,0.45
2023-01-13T15:14:18.761Z,0.45
2023-01-13T15:16:49.941Z,0.38
2023-01-13T15:19:16.807Z,0.37
2023-01-13T15:21:45.469Z,0.41
2023-01-13T15:24:12.832Z,0.40
2023-01-13T15:26:39.223Z,0.41
2023-01-13T15:29:07.922Z,0.30
2023-01-13T15:31:35.342Z,0.25
2023-01-13T15:34:01.710Z,0.31
2023-01-13T15:36:28.051Z,0.27
2023-01-13T15:38:54.418Z,0.35
2023-01-13T15:41:21.853Z,0.41
2023-01-13T15:43:48.226Z,0.51
2023-01-13T15:46:14.633Z,0.37
2023-01-13T15:48:41.086Z,0.38
2023-01-13T15:51:08.589Z,0.48
2023-01-13T15:53:35.120Z,0.38
2023-01-13T15:56:01.499Z,0.43
2023-01-13T15:58:30.829Z,0.41
2023-01-13T16:00:57.230Z,0.41
2023-01-13T16:03:23.633Z,0.48
2023-01-13T16:05:50.269Z,0.47
2023-01-13T16:08:22.345Z,0.42
2023-01-13T16:10:49.154Z,0.52
2023-01-13T16:13:15.516Z,0.53
2023-01-13T16:15:43.297Z,0.57
2023-01-13T16:18:09.678Z,0.61
2023-01-13T16:20:36.067Z,0.63
2023-01-13T16:23:03.867Z,0.59
2023-01-13T16:25:31.269Z,0.53
2023-01-13T16:27:57.617Z,0.71
2023-01-13T16:30:24.860Z,0.74
2023-01-13T16:32:51.232Z,0.68
2023-01-13T16:35:19.926Z,0.71
2023-01-13T16:37:46.261Z,0.79
2023-01-13T16:40:13.672Z,0.72
2023-01-13T16:42:40.037Z,0.97
2023-01-13T16:45:07.736Z,0.84
2023-01-13T16:47:34.636Z,0.93
2023-01-13T16:50:04.248Z,0.96
2023-01-13T16:52:35.388Z,0.89
2023-01-13T16:55:01.784Z,0.78
2023-01-13T16:57:29.193Z,0.76
2023-01-13T16:59:56.551Z,0.78
2023-01-13T17:02:23.927Z,0.91
2023-01-13T17:04:50.300Z,0.97
2023-01-13T17:07:16.752Z,0.94
2023-01-13T17:09:43.197Z,0.76
2023-01-13T17:12:09.546Z,0.76
2023-01-13T17:14:35.876Z,0.76
2023-01-13T17:17:03.230Z,0.68
2023-01-13T17:19:31.636Z,0.68
2023-01-13T17:21:58.102Z,0.61
2023-01-13T17:24:25.609Z,0.64
2023-01-13T17:26:51.962Z,0.66
2023-01-13T17:29:18.423Z,0.71
2023-01-13T17:31:45.069Z,0.63
2023-01-13T17:34:11.679Z,0.47
2023-01-13T17:36:38.304Z,0.37
2023-01-13T17:39:04.959Z,0.52
2023-01-13T17:41:32.520Z,0.69
2023-01-13T17:43:59.958Z,1.29
2023-01-13T17:46:27.391Z,1.45
2023-01-13T17:48:53.822Z,0.99
2023-01-13T17:51:21.964Z,0.64
2023-01-13T17:53:48.645Z,0.76
2023-01-13T17:56:19.519Z,0.91
2023-01-13T17:58:45.904Z,0.76
2023-01-13T18:01:13.023Z,0.67
2023-01-13T18:03:40.402Z,0.65
2023-01-13T18:06:07.791Z,0.75
2023-01-13T18:08:34.486Z,0.78
2023-01-13T18:11:00.912Z,0.78
2023-01-13T18:13:30.310Z,0.88
2023-01-13T18:15:56.967Z,0.85
2023-01-13T18:18:30.675Z,0.85
2023-01-13T18:20:57.041Z,0.73
2023-01-13T18:23:26.030Z,0.72
2023-01-13T18:25:55.771Z,0.81
2023-01-13T18:28:22.332Z,0.82
2023-01-13T18:30:49.733Z,0.87
2023-01-13T18:33:19.004Z,0.90
2023-01-13T18:35:45.373Z,0.87
2023-01-13T18:38:11.709Z,0.73
2023-01-13T18:40:38.036Z,0.68
2023-01-13T18:43:04.629Z,0.85
2023-01-13T18:45:30.991Z,0.74
2023-01-13T18:47:57.752Z,1.18
2023-01-13T18:50:24.756Z,1.31
2023-01-13T18:52:51.128Z,1.00
2023-01-13T18:55:17.463Z,1.03
2023-01-13T18:57:43.801Z,1.02
2023-01-13T19:00:10.178Z,1.00
2023-01-13T19:02:36.582Z,0.85
2023-01-13T19:05:02.998Z,0.81
2023-01-13T19:07:29.391Z,1.16
2023-01-13T19:09:55.921Z,1.14
2023-01-13T19:12:22.755Z,0.95
2023-01-13T19:14:49.285Z,0.97
2023-01-13T19:17:15.665Z,1.09
2023-01-13T19:19:42.065Z,0.92
2023-01-13T19:22:08.877Z,0.88
2023-01-13T19:24:35.221Z,0.82
2023-01-13T19:27:04.620Z,0.99
2023-01-13T19:29:33.874Z,1.14
2023-01-13T19:32:00.439Z,1.99
2023-01-13T19:34:26.908Z,1.80
2023-01-13T19:36:53.251Z,1.12
2023-01-13T19:39:19.742Z,1.22
2023-01-13T19:41:46.734Z,1.24
2023-01-13T19:44:15.981Z,1.22
2023-01-13T19:46:42.376Z,1.42
2023-01-13T19:49:08.765Z,1.13
2023-01-13T19:51:35.145Z,1.37
2023-01-13T19:54:01.553Z,1.44
2023-01-13T19:56:27.960Z,1.22
2023-01-13T19:58:54.449Z,1.28
2023-01-13T20:01:20.915Z,1.55
2023-01-13T20:03:47.653Z,1.72
2023-01-13T20:06:14.056Z,1.75
2023-01-13T20:08:40.435Z,1.95
2023-01-13T20:11:06.782Z,2.01
2023-01-13T20:13:33.558Z,1.96
2023-01-13T20:16:04.952Z,2.28
2023-01-13T20:18:31.581Z,2.51
2023-01-13T20:20:57.971Z,2.89
2023-01-13T20:23:24.563Z,2.44
2023-01-13T20:25:58.048Z,1.80
2023-01-13T20:28:24.960Z,1.95
2023-01-13T20:30:51.512Z,1.42
2023-01-13T20:33:17.848Z,1.46
2023-01-13T20:35:44.201Z,1.47
2023-01-13T20:38:10.532Z,1.64
2023-01-13T20:40:36.979Z,1.96
2023-01-13T20:43:03.501Z,1.86
2023-01-13T20:45:34.183Z,1.20
2023-01-13T20:48:02.624Z,1.15
2023-01-13T20:50:28.960Z,1.24
2023-01-13T20:53:02.066Z,1.60
2023-01-13T20:55:28.931Z,1.47
2023-01-13T20:57:56.006Z,1.56
2023-01-13T21:00:22.361Z,1.85
2023-01-13T21:02:48.695Z,1.55
2023-01-13T21:05:15.033Z,1.53
2023-01-13T21:07:52.631Z,1.55
2023-01-13T21:10:19.041Z,1.43
2023-01-13T21:12:45.397Z,1.51
2023-01-13T21:15:11.744Z,1.40
2023-01-13T21:17:40.540Z,1.45
2023-01-13T21:20:07.132Z,1.39
2023-01-13T21:22:34.471Z,1.38
2023-01-13T21:25:04.250Z,1.41
2023-01-13T21:27:32.736Z,1.45
2023-01-13T21:30:01.163Z,1.22
2023-01-13T21:32:27.981Z,1.05
2023-01-13T21:34:56.728Z,1.16
2023-01-13T21:37:24.407Z,1.13
2023-01-13T21:39:50.956Z,1.26
2023-01-13T21:42:17.314Z,1.21
2023-01-13T21:44:44.707Z,1.36
2023-01-13T21:47:11.085Z,1.08
2023-01-13T21:49:37.528Z,1.33
2023-01-13T21:52:03.879Z,1.08
2023-01-13T21:54:30.222Z,1.16
2023-01-13T21:56:58.015Z,1.29
2023-01-13T21:59:24.344Z,1.07
2023-01-13T22:02:02.020Z,1.11
2023-01-13T22:04:37.241Z,1.18
2023-01-13T22:07:03.609Z,1.07
2023-01-13T22:09:29.992Z,0.94
2023-01-13T22:11:56.379Z,1.22
2023-01-13T22:14:22.767Z,1.33
2023-01-13T22:16:56.492Z,1.16
2023-01-13T22:19:22.833Z,1.29
2023-01-13T22:21:49.170Z,1.19
2023-01-13T22:24:18.094Z,1.36
2023-01-13T22:26:44.428Z,1.15
2023-01-13T22:29:10.764Z,1.25
2023-01-13T22:31:38.140Z,1.19
2023-01-13T22:34:12.406Z,1.46
2023-01-13T22:36:38.794Z,1.38
2023-01-13T22:39:05.163Z,1.23
2023-01-13T22:41:32.046Z,1.21
2023-01-13T22:43:58.648Z,1.22
2023-01-13T22:46:24.986Z,1.49
2023-01-13T22:48:51.330Z,1.46
2023-01-13T22:51:17.697Z,1.66
2023-01-13T22:53:44.037Z,1.26
2023-01-13T22:56:10.641Z,1.29
2023-01-13T22:58:36.985Z,1.32
2023-01-13T23:01:03.433Z,1.35
2023-01-13T23:03:29.848Z,1.36
2023-01-13T23:05:56.302Z,1.35
2023-01-13T23:08:22.682Z,1.26
2023-01-13T23:10:49.061Z,1.37
2023-01-13T23:13:15.441Z,1.28
2023-01-13T23:15:41.861Z,1.30
2023-01-13T23:18:08.333Z,1.38
2023-01-13T23:20:37.057Z,1.45
2023-01-13T23:23:03.415Z,1.54
2023-01-13T23:25:29.809Z,1.72
2023-01-13T23:27:56.235Z,1.71
2023-01-13T23:30:22.587Z,1.60
2023-01-13T23:32:49.161Z,1.60
2023-01-13T23:35:16.087Z,1.59
2023-01-13T23:37:42.471Z,1.86
2023-01-13T23:40:09.151Z,1.43
2023-01-13T23:42:35.539Z,1.67
2023-01-13T23:45:01.924Z,1.70
2023-01-13T23:47:30.589Z,1.72
2023-01-13T23:49:56.928Z,1.52
2023-01-13T23:52:24.274Z,1.58
2023-01-13T23:54:50.643Z,1.69
2023-01-13T23:57:17.269Z,1.64
2023-01-13T23:59:44.683Z,1.40
